sensor_id;sensor_type;location;lat;lon;timestamp;temperature;humidity
11242;DHT22;5678;52.370;9.006;2023-12-20T00:01:22;5.70;1.00
11242;DHT22;5678;52.370;9.006;2023-12-20T00:03:50;6.10;1.00
11242;DHT22;5678;52.370;9.006;2023-12-20T00:06:20;5.70;6.10
11242;DHT22;5678;52.370;9.006;2023-12-20T00:08:48;5.70;19.10
11242;DHT22;5678;52.370;9.006;2023-12-20T00:11:16;5.60;57.60
11242;DHT22;5678;52.370;9.006;2023-12-20T00:13:44;5.50;99.90
11242;DHT22;5678;52.370;9.006;2023-12-20T00:16:17;5.50;99.90
11242;DHT22;5678;52.370;9.006;2023-12-20T00:18:45;5.40;99.90
11242;DHT22;5678;52.370;9.006;2023-12-20T00:21:13;5.30;99.90
11242;DHT22;5678;52.370;9.006;2023-12-20T00:23:43;5.50;99.90
11242;DHT22;5678;52.370;9.006;2023-12-20T00:26:11;5.30;99.90
11242;DHT22;5678;52.370;9.006;2023-12-20T00:28:39;5.40;99.90
11242;DHT22;5678;52.370;9.006;2023-12-20T00:31:07;5.40;99.90
11242;DHT22;5678;52.370;9.006;2023-12-20T00:33:35;5.40;99.90
11242;DHT22;5678;52.370;9.006;2023-12-20T00:36:04;5.60;99.90
11242;DHT22;5678;52.370;9.006;2023-12-20T00:38:32;5.40;99.90
11242;DHT22;5678;52.370;9.006;2023-12-20T00:41:02;5.20;99.90
11242;DHT22;5678;52.370;9.006;2023-12-20T00:43:30;5.30;99.90
11242;DHT22;5678;52.370;9.006;2023-12-20T00:45:58;5.20;99.90
11242;DHT22;5678;52.370;9.006;2023-12-20T00:48:27;5.20;99.90
11242;DHT22;5678;52.370;9.006;2023-12-20T00:50:57;5.40;99.90
11242;DHT22;5678;52.370;9.006;2023-12-20T00:53:25;5.30;99.90
11242;DHT22;5678;52.370;9.006;2023-12-20T00:55:53;5.20;99.90
11242;DHT22;5678;52.370;9.006;2023-12-20T00:58:22;5.60;99.90
11242;DHT22;5678;52.370;9.006;2023-12-20T01:00:51;5.30;99.90
11242;DHT22;5678;52.370;9.006;2023-12-20T01:03:19;5.40;99.90
11242;DHT22;5678;52.370;9.006;2023-12-20T01:05:47;5.60;99.90
11242;DHT22;5678;52.370;9.006;2023-12-20T01:08:15;5.30;99.90
11242;DHT22;5678;52.370;9.006;2023-12-20T01:10:43;5.30;99.90
11242;DHT22;5678;52.370;9.006;2023-12-20T01:13:11;5.20;99.90
11242;DHT22;5678;52.370;9.006;2023-12-20T01:15:40;5.30;99.90
11242;DHT22;5678;52.370;9.006;2023-12-20T01:18:08;5.20;99.90
11242;DHT22;5678;52.370;9.006;2023-12-20T01:20:39;5.10;99.90
11242;DHT22;5678;52.370;9.006;2023-12-20T01:23:07;5.10;99.90
11242;DHT22;5678;52.370;9.006;2023-12-20T01:25:35;5.00;99.90
11242;DHT22;5678;52.370;9.006;2023-12-20T01:28:03;5.10;99.90
11242;DHT22;5678;52.370;9.006;2023-12-20T01:30:31;5.00;99.90
11242;DHT22;5678;52.370;9.006;2023-12-20T01:33:01;5.00;99.90
11242;DHT22;5678;52.370;9.006;2023-12-20T01:35:29;5.10;99.90
11242;DHT22;5678;52.370;9.006;2023-12-20T01:37:57;5.40;99.90
11242;DHT22;5678;52.370;9.006;2023-12-20T01:40:25;4.90;99.90
11242;DHT22;5678;52.370;9.006;2023-12-20T01:43:00;4.60;99.90
11242;DHT22;5678;52.370;9.006;2023-12-20T01:45:28;4.70;99.90
11242;DHT22;5678;52.370;9.006;2023-12-20T01:47:57;4.80;99.90
11242;DHT22;5678;52.370;9.006;2023-12-20T01:50:28;4.90;99.90
11242;DHT22;5678;52.370;9.006;2023-12-20T01:52:57;4.70;99.90
11242;DHT22;5678;52.370;9.006;2023-12-20T01:55:27;4.80;99.90
11242;DHT22;5678;52.370;9.006;2023-12-20T01:57:58;4.90;99.90
11242;DHT22;5678;52.370;9.006;2023-12-20T02:00:28;4.80;99.90
11242;DHT22;5678;52.370;9.006;2023-12-20T02:02:59;4.80;99.90
11242;DHT22;5678;52.370;9.006;2023-12-20T02:05:30;4.90;99.90
11242;DHT22;5678;52.370;9.006;2023-12-20T02:07:58;5.00;99.90
11242;DHT22;5678;52.370;9.006;2023-12-20T02:10:27;4.60;99.90
11242;DHT22;5678;52.370;9.006;2023-12-20T02:12:56;4.90;99.90
11242;DHT22;5678;52.370;9.006;2023-12-20T02:15:24;4.90;99.90
11242;DHT22;5678;52.370;9.006;2023-12-20T02:17:52;4.90;99.90
11242;DHT22;5678;52.370;9.006;2023-12-20T02:20:21;4.90;99.90
11242;DHT22;5678;52.370;9.006;2023-12-20T02:22:50;4.90;99.90
11242;DHT22;5678;52.370;9.006;2023-12-20T02:25:18;4.80;99.90
11242;DHT22;5678;52.370;9.006;2023-12-20T02:27:47;4.70;99.90
11242;DHT22;5678;52.370;9.006;2023-12-20T02:30:15;4.60;99.90
11242;DHT22;5678;52.370;9.006;2023-12-20T02:32:44;4.70;99.90
11242;DHT22;5678;52.370;9.006;2023-12-20T02:35:12;4.60;99.90
11242;DHT22;5678;52.370;9.006;2023-12-20T02:37:40;4.70;99.90
11242;DHT22;5678;52.370;9.006;2023-12-20T02:40:10;4.60;99.90
11242;DHT22;5678;52.370;9.006;2023-12-20T02:42:38;4.40;99.90
11242;DHT22;5678;52.370;9.006;2023-12-20T02:45:07;4.30;99.90
11242;DHT22;5678;52.370;9.006;2023-12-20T02:47:35;4.40;99.90
11242;DHT22;5678;52.370;9.006;2023-12-20T02:50:04;4.80;99.90
11242;DHT22;5678;52.370;9.006;2023-12-20T02:52:32;4.30;99.90
11242;DHT22;5678;52.370;9.006;2023-12-20T02:55:00;4.30;99.90
11242;DHT22;5678;52.370;9.006;2023-12-20T02:57:29;4.60;99.90
11242;DHT22;5678;52.370;9.006;2023-12-20T02:59:58;4.70;99.90
11242;DHT22;5678;52.370;9.006;2023-12-20T03:02:26;4.50;99.90
11242;DHT22;5678;52.370;9.006;2023-12-20T03:04:54;4.50;99.90
11242;DHT22;5678;52.370;9.006;2023-12-20T03:07:22;4.50;99.90
11242;DHT22;5678;52.370;9.006;2023-12-20T03:09:50;4.30;99.90
11242;DHT22;5678;52.370;9.006;2023-12-20T03:12:40;4.30;99.90
11242;DHT22;5678;52.370;9.006;2023-12-20T03:15:09;4.30;99.90
11242;DHT22;5678;52.370;9.006;2023-12-20T03:17:37;4.20;99.90
11242;DHT22;5678;52.370;9.006;2023-12-20T03:20:06;4.40;99.90
11242;DHT22;5678;52.370;9.006;2023-12-20T03:22:35;4.40;99.90
11242;DHT22;5678;52.370;9.006;2023-12-20T03:25:03;4.40;99.90
11242;DHT22;5678;52.370;9.006;2023-12-20T03:27:31;4.30;99.90
11242;DHT22;5678;52.370;9.006;2023-12-20T03:30:01;4.60;99.90
11242;DHT22;5678;52.370;9.006;2023-12-20T03:32:29;5.10;99.90
11242;DHT22;5678;52.370;9.006;2023-12-20T03:34:57;4.80;99.90
11242;DHT22;5678;52.370;9.006;2023-12-20T03:37:25;4.80;99.90
11242;DHT22;5678;52.370;9.006;2023-12-20T03:39:53;4.70;99.90
11242;DHT22;5678;52.370;9.006;2023-12-20T03:42:21;4.90;99.90
11242;DHT22;5678;52.370;9.006;2023-12-20T03:44:49;4.80;99.90
11242;DHT22;5678;52.370;9.006;2023-12-20T03:47:19;4.90;99.90
11242;DHT22;5678;52.370;9.006;2023-12-20T03:49:47;4.80;91.30
11242;DHT22;5678;52.370;9.006;2023-12-20T03:52:15;4.70;23.10
11242;DHT22;5678;52.370;9.006;2023-12-20T03:54:43;4.90;31.90
11242;DHT22;5678;52.370;9.006;2023-12-20T03:57:11;4.70;23.40
11242;DHT22;5678;52.370;9.006;2023-12-20T03:59:40;4.80;1.00
11242;DHT22;5678;52.370;9.006;2023-12-20T04:02:08;4.80;21.90
11242;DHT22;5678;52.370;9.006;2023-12-20T04:04:37;4.90;46.00
11242;DHT22;5678;52.370;9.006;2023-12-20T04:07:05;4.80;38.30
11242;DHT22;5678;52.370;9.006;2023-12-20T04:09:34;4.80;44.00
11242;DHT22;5678;52.370;9.006;2023-12-20T04:12:02;4.90;65.80
11242;DHT22;5678;52.370;9.006;2023-12-20T04:14:30;4.80;90.00
11242;DHT22;5678;52.370;9.006;2023-12-20T04:16:58;5.10;76.00
11242;DHT22;5678;52.370;9.006;2023-12-20T04:19:26;5.10;65.00
11242;DHT22;5678;52.370;9.006;2023-12-20T04:21:56;3.70;27.10
11242;DHT22;5678;52.370;9.006;2023-12-20T04:24:24;5.40;6.80
11242;DHT22;5678;52.370;9.006;2023-12-20T04:26:52;5.20;1.00
11242;DHT22;5678;52.370;9.006;2023-12-20T04:29:20;5.20;1.00
11242;DHT22;5678;52.370;9.006;2023-12-20T04:31:48;5.50;1.00
11242;DHT22;5678;52.370;9.006;2023-12-20T04:34:18;5.30;1.00
11242;DHT22;5678;52.370;9.006;2023-12-20T04:36:46;5.40;1.00
11242;DHT22;5678;52.370;9.006;2023-12-20T04:39:15;5.30;1.00
11242;DHT22;5678;52.370;9.006;2023-12-20T04:41:43;5.50;1.00
11242;DHT22;5678;52.370;9.006;2023-12-20T04:44:11;5.40;1.00
11242;DHT22;5678;52.370;9.006;2023-12-20T04:46:40;5.50;1.00
11242;DHT22;5678;52.370;9.006;2023-12-20T04:49:08;5.70;1.00
11242;DHT22;5678;52.370;9.006;2023-12-20T04:51:36;5.30;1.00
11242;DHT22;5678;52.370;9.006;2023-12-20T04:54:05;5.50;1.00
11242;DHT22;5678;52.370;9.006;2023-12-20T04:56:34;5.30;1.00
11242;DHT22;5678;52.370;9.006;2023-12-20T04:59:02;5.40;1.00
11242;DHT22;5678;52.370;9.006;2023-12-20T05:01:30;5.50;1.00
11242;DHT22;5678;52.370;9.006;2023-12-20T05:03:58;5.60;1.00
11242;DHT22;5678;52.370;9.006;2023-12-20T05:06:26;5.50;1.00
11242;DHT22;5678;52.370;9.006;2023-12-20T05:08:54;5.60;1.00
11242;DHT22;5678;52.370;9.006;2023-12-20T05:11:22;5.50;1.00
11242;DHT22;5678;52.370;9.006;2023-12-20T05:13:51;5.60;1.00
11242;DHT22;5678;52.370;9.006;2023-12-20T05:16:20;5.60;1.00
11242;DHT22;5678;52.370;9.006;2023-12-20T05:18:48;5.50;1.00
11242;DHT22;5678;52.370;9.006;2023-12-20T05:21:19;5.60;1.00
11242;DHT22;5678;52.370;9.006;2023-12-20T05:23:47;5.90;1.00
11242;DHT22;5678;52.370;9.006;2023-12-20T05:26:15;5.80;1.00
11242;DHT22;5678;52.370;9.006;2023-12-20T05:28:43;5.40;1.00
11242;DHT22;5678;52.370;9.006;2023-12-20T05:31:13;5.50;1.00
11242;DHT22;5678;52.370;9.006;2023-12-20T05:33:41;5.40;1.00
11242;DHT22;5678;52.370;9.006;2023-12-20T05:36:09;5.30;1.00
11242;DHT22;5678;52.370;9.006;2023-12-20T05:38:40;5.10;1.00
11242;DHT22;5678;52.370;9.006;2023-12-20T05:41:08;5.00;1.00
11242;DHT22;5678;52.370;9.006;2023-12-20T05:43:36;5.20;1.00
11242;DHT22;5678;52.370;9.006;2023-12-20T05:46:04;5.40;1.00
11242;DHT22;5678;52.370;9.006;2023-12-20T05:48:33;5.30;14.50
11242;DHT22;5678;52.370;9.006;2023-12-20T05:51:02;5.10;1.00
11242;DHT22;5678;52.370;9.006;2023-12-20T05:53:30;5.20;1.00
11242;DHT22;5678;52.370;9.006;2023-12-20T05:55:58;5.50;1.00
11242;DHT22;5678;52.370;9.006;2023-12-20T05:58:26;5.10;1.00
11242;DHT22;5678;52.370;9.006;2023-12-20T06:00:54;5.10;1.00
11242;DHT22;5678;52.370;9.006;2023-12-20T06:03:22;5.10;1.00
11242;DHT22;5678;52.370;9.006;2023-12-20T06:05:52;5.20;1.00
11242;DHT22;5678;52.370;9.006;2023-12-20T06:08:36;5.10;1.00
11242;DHT22;5678;52.370;9.006;2023-12-20T06:11:04;5.10;1.00
11242;DHT22;5678;52.370;9.006;2023-12-20T06:13:33;5.10;1.00
11242;DHT22;5678;52.370;9.006;2023-12-20T06:16:02;5.10;1.00
11242;DHT22;5678;52.370;9.006;2023-12-20T06:18:31;5.10;1.00
11242;DHT22;5678;52.370;9.006;2023-12-20T06:21:00;5.00;1.00
11242;DHT22;5678;52.370;9.006;2023-12-20T06:23:29;5.00;1.00
11242;DHT22;5678;52.370;9.006;2023-12-20T06:25:57;5.10;1.00
11242;DHT22;5678;52.370;9.006;2023-12-20T06:28:25;5.10;1.00
11242;DHT22;5678;52.370;9.006;2023-12-20T06:30:53;5.70;1.00
11242;DHT22;5678;52.370;9.006;2023-12-20T06:33:21;5.20;1.00
11242;DHT22;5678;52.370;9.006;2023-12-20T06:35:50;5.20;1.00
11242;DHT22;5678;52.370;9.006;2023-12-20T06:38:19;5.20;1.00
11242;DHT22;5678;52.370;9.006;2023-12-20T06:40:47;5.20;1.00
11242;DHT22;5678;52.370;9.006;2023-12-20T06:43:15;5.30;1.00
11242;DHT22;5678;52.370;9.006;2023-12-20T06:46:03;5.30;1.00
11242;DHT22;5678;52.370;9.006;2023-12-20T06:48:32;5.30;1.00
11242;DHT22;5678;52.370;9.006;2023-12-20T06:51:00;5.20;1.00
11242;DHT22;5678;52.370;9.006;2023-12-20T06:53:31;5.40;1.00
11242;DHT22;5678;52.370;9.006;2023-12-20T06:55:58;5.40;1.00
11242;DHT22;5678;52.370;9.006;2023-12-20T06:58:26;5.60;1.00
11242;DHT22;5678;52.370;9.006;2023-12-20T07:00:55;5.50;1.00
11242;DHT22;5678;52.370;9.006;2023-12-20T07:03:23;5.80;1.00
11242;DHT22;5678;52.370;9.006;2023-12-20T07:05:51;5.50;1.00
11242;DHT22;5678;52.370;9.006;2023-12-20T07:08:19;5.70;1.00
11242;DHT22;5678;52.370;9.006;2023-12-20T07:10:48;5.80;1.00
11242;DHT22;5678;52.370;9.006;2023-12-20T07:13:16;5.50;1.00
11242;DHT22;5678;52.370;9.006;2023-12-20T07:15:44;5.80;1.00
11242;DHT22;5678;52.370;9.006;2023-12-20T07:18:12;5.50;1.00
11242;DHT22;5678;52.370;9.006;2023-12-20T07:20:40;5.50;11.80
11242;DHT22;5678;52.370;9.006;2023-12-20T07:23:08;5.50;12.60
11242;DHT22;5678;52.370;9.006;2023-12-20T07:25:37;5.40;25.80
11242;DHT22;5678;52.370;9.006;2023-12-20T07:28:07;5.40;74.50
11242;DHT22;5678;52.370;9.006;2023-12-20T07:30:35;5.40;98.00
11242;DHT22;5678;52.370;9.006;2023-12-20T07:33:03;5.30;99.90
11242;DHT22;5678;52.370;9.006;2023-12-20T07:35:32;5.30;99.90
11242;DHT22;5678;52.370;9.006;2023-12-20T07:38:00;5.50;99.90
11242;DHT22;5678;52.370;9.006;2023-12-20T07:40:29;5.50;99.90
11242;DHT22;5678;52.370;9.006;2023-12-20T07:42:57;5.50;99.90
11242;DHT22;5678;52.370;9.006;2023-12-20T07:45:26;5.60;99.90
11242;DHT22;5678;52.370;9.006;2023-12-20T07:47:54;5.70;93.80
11242;DHT22;5678;52.370;9.006;2023-12-20T07:50:22;5.60;99.10
11242;DHT22;5678;52.370;9.006;2023-12-20T07:52:50;5.50;99.70
11242;DHT22;5678;52.370;9.006;2023-12-20T07:55:18;5.90;83.90
11242;DHT22;5678;52.370;9.006;2023-12-20T07:57:47;5.60;99.90
11242;DHT22;5678;52.370;9.006;2023-12-20T08:00:16;5.50;99.90
11242;DHT22;5678;52.370;9.006;2023-12-20T08:02:46;5.40;99.90
11242;DHT22;5678;52.370;9.006;2023-12-20T08:05:14;5.60;99.90
11242;DHT22;5678;52.370;9.006;2023-12-20T08:07:44;5.70;99.90
11242;DHT22;5678;52.370;9.006;2023-12-20T08:10:13;5.60;99.90
11242;DHT22;5678;52.370;9.006;2023-12-20T08:12:41;5.60;99.90
11242;DHT22;5678;52.370;9.006;2023-12-20T08:15:09;5.50;99.90
11242;DHT22;5678;52.370;9.006;2023-12-20T08:17:37;5.40;99.90
11242;DHT22;5678;52.370;9.006;2023-12-20T08:20:08;5.60;99.90
11242;DHT22;5678;52.370;9.006;2023-12-20T08:22:36;5.40;99.90
11242;DHT22;5678;52.370;9.006;2023-12-20T08:25:04;5.70;99.90
11242;DHT22;5678;52.370;9.006;2023-12-20T08:27:33;5.50;99.90
11242;DHT22;5678;52.370;9.006;2023-12-20T08:30:01;5.70;99.90
11242;DHT22;5678;52.370;9.006;2023-12-20T08:32:29;5.60;99.90
11242;DHT22;5678;52.370;9.006;2023-12-20T08:34:58;5.70;99.90
11242;DHT22;5678;52.370;9.006;2023-12-20T08:37:28;5.70;99.90
11242;DHT22;5678;52.370;9.006;2023-12-20T08:39:56;5.70;99.90
11242;DHT22;5678;52.370;9.006;2023-12-20T08:42:25;5.70;99.90
11242;DHT22;5678;52.370;9.006;2023-12-20T08:44:57;5.80;99.90
11242;DHT22;5678;52.370;9.006;2023-12-20T08:47:26;5.50;99.90
11242;DHT22;5678;52.370;9.006;2023-12-20T08:49:54;5.80;99.90
11242;DHT22;5678;52.370;9.006;2023-12-20T08:52:23;5.90;99.90
11242;DHT22;5678;52.370;9.006;2023-12-20T08:54:53;5.60;99.90
11242;DHT22;5678;52.370;9.006;2023-12-20T08:57:21;5.80;99.90
11242;DHT22;5678;52.370;9.006;2023-12-20T08:59:50;5.90;63.70
11242;DHT22;5678;52.370;9.006;2023-12-20T09:02:18;5.80;73.60
11242;DHT22;5678;52.370;9.006;2023-12-20T09:04:46;5.80;53.00
11242;DHT22;5678;52.370;9.006;2023-12-20T09:07:23;5.80;59.60
11242;DHT22;5678;52.370;9.006;2023-12-20T09:09:53;5.80;30.00
11242;DHT22;5678;52.370;9.006;2023-12-20T09:12:21;6.00;45.20
11242;DHT22;5678;52.370;9.006;2023-12-20T09:14:50;5.90;31.50
11242;DHT22;5678;52.370;9.006;2023-12-20T09:17:19;5.80;25.40
11242;DHT22;5678;52.370;9.006;2023-12-20T09:19:47;5.90;25.00
11242;DHT22;5678;52.370;9.006;2023-12-20T09:22:15;6.10;3.60
11242;DHT22;5678;52.370;9.006;2023-12-20T09:24:44;5.90;1.00
11242;DHT22;5678;52.370;9.006;2023-12-20T09:27:13;5.90;1.00
11242;DHT22;5678;52.370;9.006;2023-12-20T09:29:41;6.00;1.00
11242;DHT22;5678;52.370;9.006;2023-12-20T09:32:09;6.00;1.00
11242;DHT22;5678;52.370;9.006;2023-12-20T09:34:37;6.10;1.00
11242;DHT22;5678;52.370;9.006;2023-12-20T09:37:05;6.00;1.00
11242;DHT22;5678;52.370;9.006;2023-12-20T09:39:34;6.20;1.00
11242;DHT22;5678;52.370;9.006;2023-12-20T09:42:04;6.10;1.00
11242;DHT22;5678;52.370;9.006;2023-12-20T09:44:34;6.00;1.00
11242;DHT22;5678;52.370;9.006;2023-12-20T09:47:03;6.20;1.00
11242;DHT22;5678;52.370;9.006;2023-12-20T09:49:32;6.10;1.00
11242;DHT22;5678;52.370;9.006;2023-12-20T09:52:01;6.30;1.00
11242;DHT22;5678;52.370;9.006;2023-12-20T09:54:30;6.20;1.00
11242;DHT22;5678;52.370;9.006;2023-12-20T09:56:59;6.10;1.00
11242;DHT22;5678;52.370;9.006;2023-12-20T09:59:27;6.40;1.00
11242;DHT22;5678;52.370;9.006;2023-12-20T10:01:56;6.20;1.00
11242;DHT22;5678;52.370;9.006;2023-12-20T10:04:25;6.10;1.00
11242;DHT22;5678;52.370;9.006;2023-12-20T10:06:56;6.00;1.00
11242;DHT22;5678;52.370;9.006;2023-12-20T10:09:25;6.30;1.00
11242;DHT22;5678;52.370;9.006;2023-12-20T10:11:55;6.30;1.00
11242;DHT22;5678;52.370;9.006;2023-12-20T10:14:24;6.10;1.00
11242;DHT22;5678;52.370;9.006;2023-12-20T10:16:52;6.20;1.00
11242;DHT22;5678;52.370;9.006;2023-12-20T10:19:22;6.00;1.00
11242;DHT22;5678;52.370;9.006;2023-12-20T10:21:50;6.00;1.00
11242;DHT22;5678;52.370;9.006;2023-12-20T10:24:19;6.00;1.00
11242;DHT22;5678;52.370;9.006;2023-12-20T10:27:01;6.10;1.00
11242;DHT22;5678;52.370;9.006;2023-12-20T10:29:32;6.10;1.00
11242;DHT22;5678;52.370;9.006;2023-12-20T10:32:23;6.20;1.00
11242;DHT22;5678;52.370;9.006;2023-12-20T10:34:54;6.10;1.00
11242;DHT22;5678;52.370;9.006;2023-12-20T10:37:22;6.30;1.00
11242;DHT22;5678;52.370;9.006;2023-12-20T10:39:52;6.50;1.00
11242;DHT22;5678;52.370;9.006;2023-12-20T10:42:25;7.20;1.00
11242;DHT22;5678;52.370;9.006;2023-12-20T10:44:54;6.20;1.00
11242;DHT22;5678;52.370;9.006;2023-12-20T10:47:22;6.50;1.00
11242;DHT22;5678;52.370;9.006;2023-12-20T10:49:54;6.60;20.10
11242;DHT22;5678;52.370;9.006;2023-12-20T10:52:23;6.40;1.00
11242;DHT22;5678;52.370;9.006;2023-12-20T10:54:52;6.50;1.00
11242;DHT22;5678;52.370;9.006;2023-12-20T10:57:21;6.50;1.00
11242;DHT22;5678;52.370;9.006;2023-12-20T10:59:54;6.50;1.00
11242;DHT22;5678;52.370;9.006;2023-12-20T11:02:22;6.40;1.00
11242;DHT22;5678;52.370;9.006;2023-12-20T11:04:56;7.20;1.00
11242;DHT22;5678;52.370;9.006;2023-12-20T11:07:32;6.90;1.00
11242;DHT22;5678;52.370;9.006;2023-12-20T11:10:08;7.10;1.00
11242;DHT22;5678;52.370;9.006;2023-12-20T11:12:43;6.60;1.00
11242;DHT22;5678;52.370;9.006;2023-12-20T11:15:15;6.80;1.00
11242;DHT22;5678;52.370;9.006;2023-12-20T11:17:45;6.70;1.00
11242;DHT22;5678;52.370;9.006;2023-12-20T11:20:21;7.00;1.00
11242;DHT22;5678;52.370;9.006;2023-12-20T11:22:54;6.80;1.00
11242;DHT22;5678;52.370;9.006;2023-12-20T11:25:23;7.20;1.00
11242;DHT22;5678;52.370;9.006;2023-12-20T11:28:09;6.90;1.00
11242;DHT22;5678;52.370;9.006;2023-12-20T11:30:42;6.90;1.00
11242;DHT22;5678;52.370;9.006;2023-12-20T11:33:14;6.80;99.90
11242;DHT22;5678;52.370;9.006;2023-12-20T11:35:45;6.50;1.00
11242;DHT22;5678;52.370;9.006;2023-12-20T11:38:14;5.80;1.00
11242;DHT22;5678;52.370;9.006;2023-12-20T11:40:43;5.60;99.90
11242;DHT22;5678;52.370;9.006;2023-12-20T11:43:11;5.30;1.00
11242;DHT22;5678;52.370;9.006;2023-12-20T11:45:49;5.00;1.00
11242;DHT22;5678;52.370;9.006;2023-12-20T11:48:19;5.20;1.00
11242;DHT22;5678;52.370;9.006;2023-12-20T11:50:48;4.70;1.00
11242;DHT22;5678;52.370;9.006;2023-12-20T11:53:16;4.80;1.00
11242;DHT22;5678;52.370;9.006;2023-12-20T11:55:47;5.10;1.00
11242;DHT22;5678;52.370;9.006;2023-12-20T11:58:15;4.70;1.00
11242;DHT22;5678;52.370;9.006;2023-12-20T12:00:44;5.10;1.00
11242;DHT22;5678;52.370;9.006;2023-12-20T12:03:15;4.70;99.90
11242;DHT22;5678;52.370;9.006;2023-12-20T12:05:43;4.80;99.90
11242;DHT22;5678;52.370;9.006;2023-12-20T12:08:17;4.70;1.00
11242;DHT22;5678;52.370;9.006;2023-12-20T12:10:45;5.20;99.90
11242;DHT22;5678;52.370;9.006;2023-12-20T12:13:13;4.70;1.00
11242;DHT22;5678;52.370;9.006;2023-12-20T12:15:42;5.20;1.00
11242;DHT22;5678;52.370;9.006;2023-12-20T12:18:15;5.10;1.00
11242;DHT22;5678;52.370;9.006;2023-12-20T12:20:43;4.90;1.00
11242;DHT22;5678;52.370;9.006;2023-12-20T12:23:11;4.90;1.00
11242;DHT22;5678;52.370;9.006;2023-12-20T12:25:40;5.10;1.00
11242;DHT22;5678;52.370;9.006;2023-12-20T12:28:10;5.50;1.00
11242;DHT22;5678;52.370;9.006;2023-12-20T12:30:38;5.30;1.00
11242;DHT22;5678;52.370;9.006;2023-12-20T12:33:19;5.30;1.00
11242;DHT22;5678;52.370;9.006;2023-12-20T12:35:48;5.20;1.00
11242;DHT22;5678;52.370;9.006;2023-12-20T12:38:16;5.80;1.00
11242;DHT22;5678;52.370;9.006;2023-12-20T12:40:45;5.70;1.00
11242;DHT22;5678;52.370;9.006;2023-12-20T12:43:14;5.70;1.00
11242;DHT22;5678;52.370;9.006;2023-12-20T12:45:42;5.50;1.00
11242;DHT22;5678;52.370;9.006;2023-12-20T12:48:10;5.80;1.00
11242;DHT22;5678;52.370;9.006;2023-12-20T12:50:38;5.70;1.00
11242;DHT22;5678;52.370;9.006;2023-12-20T12:53:06;5.60;1.00
11242;DHT22;5678;52.370;9.006;2023-12-20T12:55:35;5.70;1.00
11242;DHT22;5678;52.370;9.006;2023-12-20T12:58:04;5.70;1.00
11242;DHT22;5678;52.370;9.006;2023-12-20T13:00:33;5.60;1.00
11242;DHT22;5678;52.370;9.006;2023-12-20T13:03:01;6.10;1.00
11242;DHT22;5678;52.370;9.006;2023-12-20T13:05:29;6.00;1.00
11242;DHT22;5678;52.370;9.006;2023-12-20T13:08:03;6.30;1.00
11242;DHT22;5678;52.370;9.006;2023-12-20T13:10:31;5.70;1.00
11242;DHT22;5678;52.370;9.006;2023-12-20T13:12:59;5.80;1.00
11242;DHT22;5678;52.370;9.006;2023-12-20T13:15:29;6.20;1.00
11242;DHT22;5678;52.370;9.006;2023-12-20T13:17:57;6.30;1.00
11242;DHT22;5678;52.370;9.006;2023-12-20T13:20:26;6.20;1.00
11242;DHT22;5678;52.370;9.006;2023-12-20T13:22:55;6.20;1.00
11242;DHT22;5678;52.370;9.006;2023-12-20T13:25:23;6.40;1.00
11242;DHT22;5678;52.370;9.006;2023-12-20T13:27:52;5.90;1.00
11242;DHT22;5678;52.370;9.006;2023-12-20T13:30:21;6.30;1.00
11242;DHT22;5678;52.370;9.006;2023-12-20T13:32:50;6.30;1.00
11242;DHT22;5678;52.370;9.006;2023-12-20T13:35:19;6.20;1.00
11242;DHT22;5678;52.370;9.006;2023-12-20T13:37:47;6.40;99.90
11242;DHT22;5678;52.370;9.006;2023-12-20T13:40:16;6.30;99.90
11242;DHT22;5678;52.370;9.006;2023-12-20T13:42:44;6.00;73.30
11242;DHT22;5678;52.370;9.006;2023-12-20T13:45:13;6.40;99.90
11242;DHT22;5678;52.370;9.006;2023-12-20T13:47:41;6.40;99.90
11242;DHT22;5678;52.370;9.006;2023-12-20T13:50:11;6.30;1.00
11242;DHT22;5678;52.370;9.006;2023-12-20T13:52:39;6.10;1.00
11242;DHT22;5678;52.370;9.006;2023-12-20T13:55:08;6.10;1.00
11242;DHT22;5678;52.370;9.006;2023-12-20T13:57:37;5.90;1.00
11242;DHT22;5678;52.370;9.006;2023-12-20T14:00:21;6.00;1.00
11242;DHT22;5678;52.370;9.006;2023-12-20T14:02:49;5.90;6.00
11242;DHT22;5678;52.370;9.006;2023-12-20T14:05:18;6.30;1.00
11242;DHT22;5678;52.370;9.006;2023-12-20T14:07:49;6.10;1.00
11242;DHT22;5678;52.370;9.006;2023-12-20T14:10:17;6.00;99.90
11242;DHT22;5678;52.370;9.006;2023-12-20T14:12:46;5.90;1.00
11242;DHT22;5678;52.370;9.006;2023-12-20T14:15:14;6.00;99.90
11242;DHT22;5678;52.370;9.006;2023-12-20T14:17:42;6.20;1.00
11242;DHT22;5678;52.370;9.006;2023-12-20T14:20:11;6.20;58.90
11242;DHT22;5678;52.370;9.006;2023-12-20T14:22:41;5.70;99.90
11242;DHT22;5678;52.370;9.006;2023-12-20T14:25:11;6.30;1.00
11242;DHT22;5678;52.370;9.006;2023-12-20T14:27:40;5.80;1.00
11242;DHT22;5678;52.370;9.006;2023-12-20T14:30:12;5.90;1.00
11242;DHT22;5678;52.370;9.006;2023-12-20T14:32:41;5.70;65.00
11242;DHT22;5678;52.370;9.006;2023-12-20T14:35:09;6.20;1.00
11242;DHT22;5678;52.370;9.006;2023-12-20T14:37:38;6.10;1.00
11242;DHT22;5678;52.370;9.006;2023-12-20T14:40:10;6.00;99.90
11242;DHT22;5678;52.370;9.006;2023-12-20T14:42:43;5.80;99.90
11242;DHT22;5678;52.370;9.006;2023-12-20T14:45:11;6.10;1.00
11242;DHT22;5678;52.370;9.006;2023-12-20T14:47:40;5.90;1.00
11242;DHT22;5678;52.370;9.006;2023-12-20T14:50:08;5.80;99.90
11242;DHT22;5678;52.370;9.006;2023-12-20T14:52:37;5.70;99.90
11242;DHT22;5678;52.370;9.006;2023-12-20T14:55:05;6.10;1.00
11242;DHT22;5678;52.370;9.006;2023-12-20T14:57:35;5.70;1.00
11242;DHT22;5678;52.370;9.006;2023-12-20T15:00:04;5.90;1.00
11242;DHT22;5678;52.370;9.006;2023-12-20T15:02:32;5.70;1.00
11242;DHT22;5678;52.370;9.006;2023-12-20T15:05:00;6.20;1.00
11242;DHT22;5678;52.370;9.006;2023-12-20T15:07:28;5.90;99.90
11242;DHT22;5678;52.370;9.006;2023-12-20T15:09:57;5.80;99.90
11242;DHT22;5678;52.370;9.006;2023-12-20T15:12:25;5.70;99.90
11242;DHT22;5678;52.370;9.006;2023-12-20T15:14:54;6.00;99.90
11242;DHT22;5678;52.370;9.006;2023-12-20T15:17:22;6.10;99.90
11242;DHT22;5678;52.370;9.006;2023-12-20T15:19:52;5.70;99.90
11242;DHT22;5678;52.370;9.006;2023-12-20T15:22:21;6.00;99.90
11242;DHT22;5678;52.370;9.006;2023-12-20T15:24:49;5.50;99.90
11242;DHT22;5678;52.370;9.006;2023-12-20T15:27:18;5.60;99.90
11242;DHT22;5678;52.370;9.006;2023-12-20T15:29:50;5.70;99.90
11242;DHT22;5678;52.370;9.006;2023-12-20T15:32:20;5.80;99.90
11242;DHT22;5678;52.370;9.006;2023-12-20T15:34:49;5.40;99.90
11242;DHT22;5678;52.370;9.006;2023-12-20T15:37:19;5.50;99.90
11242;DHT22;5678;52.370;9.006;2023-12-20T15:39:47;5.10;99.90
11242;DHT22;5678;52.370;9.006;2023-12-20T15:42:15;5.40;99.90
11242;DHT22;5678;52.370;9.006;2023-12-20T15:44:43;5.40;99.90
11242;DHT22;5678;52.370;9.006;2023-12-20T15:47:11;5.20;99.90
11242;DHT22;5678;52.370;9.006;2023-12-20T15:49:40;5.00;99.90
11242;DHT22;5678;52.370;9.006;2023-12-20T15:52:08;5.00;99.90
11242;DHT22;5678;52.370;9.006;2023-12-20T15:54:36;5.00;99.90
11242;DHT22;5678;52.370;9.006;2023-12-20T15:57:06;5.50;99.90
11242;DHT22;5678;52.370;9.006;2023-12-20T15:59:34;5.10;99.90
11242;DHT22;5678;52.370;9.006;2023-12-20T16:02:02;5.00;99.90
11242;DHT22;5678;52.370;9.006;2023-12-20T16:04:31;4.80;99.90
11242;DHT22;5678;52.370;9.006;2023-12-20T16:07:01;5.00;99.90
11242;DHT22;5678;52.370;9.006;2023-12-20T16:09:29;5.30;99.90
11242;DHT22;5678;52.370;9.006;2023-12-20T16:11:57;5.00;99.90
11242;DHT22;5678;52.370;9.006;2023-12-20T16:14:25;5.00;99.90
11242;DHT22;5678;52.370;9.006;2023-12-20T16:16:56;5.00;99.90
11242;DHT22;5678;52.370;9.006;2023-12-20T16:19:25;5.00;99.90
11242;DHT22;5678;52.370;9.006;2023-12-20T16:21:54;5.10;99.90